createdAt,value
2019-03-15T00:00:28.112Z,19.35
2019-03-15T00:02:59.567Z,19.30
2019-03-15T00:05:31.614Z,19.27
2019-03-15T00:08:03.236Z,19.27
2019-03-15T00:10:35.030Z,19.21
2019-03-15T00:13:06.487Z,19.07
2019-03-15T00:15:38.270Z,19.36
2019-03-15T00:18:09.760Z,19.36
2019-03-15T00:20:41.578Z,19.20
2019-03-15T00:23:13.372Z,19.08
2019-03-15T00:25:45.111Z,19.08
2019-03-15T00:28:17.978Z,19.18
2019-03-15T00:30:49.730Z,19.06
2019-03-15T00:33:21.514Z,19.08
2019-03-15T00:35:53.180Z,19.08
2019-03-15T00:38:25.027Z,19.09
2019-03-15T00:40:56.901Z,19.09
2019-03-15T00:43:28.602Z,19.07
2019-03-15T00:46:00.108Z,19.07
2019-03-15T00:48:31.970Z,19.08
2019-03-15T00:51:03.699Z,19.08
2019-03-15T00:53:35.404Z,18.83
2019-03-15T00:56:07.119Z,18.87
2019-03-15T00:58:38.860Z,19.04
2019-03-15T01:01:10.594Z,19.04
2019-03-15T01:03:42.323Z,18.92
2019-03-15T01:06:14.064Z,18.92
2019-03-15T01:08:45.555Z,18.94
2019-03-15T01:11:17.128Z,18.85
2019-03-15T01:13:49.084Z,18.79
2019-03-15T01:16:20.485Z,18.82
2019-03-15T01:18:52.389Z,18.82
2019-03-15T01:21:23.979Z,18.73
2019-03-15T01:23:55.776Z,18.73
2019-03-15T01:26:27.237Z,18.64
2019-03-15T01:28:59.122Z,18.64
2019-03-15T01:31:30.541Z,18.85
2019-03-15T01:34:02.164Z,19.97
2019-03-15T01:36:33.742Z,19.97
2019-03-15T01:39:05.940Z,21.07
2019-03-15T01:41:37.262Z,21.07
2019-03-15T01:44:08.700Z,21.27
2019-03-15T01:46:40.830Z,21.27
2019-03-15T01:49:12.383Z,21.33
2019-03-15T01:51:44.038Z,21.24
2019-03-15T01:54:16.749Z,21.55
2019-03-15T01:56:48.268Z,21.55
2019-03-15T01:59:20.056Z,21.67
2019-03-15T02:01:51.628Z,21.67
2019-03-15T02:04:23.419Z,21.63
2019-03-15T02:06:55.121Z,21.14
2019-03-15T02:09:26.596Z,21.10
2019-03-15T02:11:58.560Z,21.31
2019-03-15T02:14:29.826Z,21.68
2019-03-15T02:17:01.177Z,21.68
2019-03-15T02:19:32.607Z,21.71
2019-03-15T02:22:04.283Z,21.80
2019-03-15T02:24:36.263Z,21.71
2019-03-15T02:27:08.175Z,21.77
2019-03-15T02:29:39.884Z,21.50
2019-03-15T02:32:12.859Z,21.50
2019-03-15T02:34:44.688Z,21.88
2019-03-15T02:37:19.985Z,21.87
2019-03-15T02:39:51.885Z,21.91
2019-03-15T02:42:23.763Z,21.67
2019-03-15T02:44:56.177Z,21.67
2019-03-15T02:47:28.018Z,21.82
2019-03-15T02:50:00.638Z,21.91
2019-03-15T02:52:32.830Z,21.80
2019-03-15T02:55:04.565Z,21.55
2019-03-15T02:57:37.290Z,21.54
2019-03-15T03:00:09.314Z,21.54
2019-03-15T03:02:41.151Z,21.54
2019-03-15T03:05:13.035Z,21.57
2019-03-15T03:07:44.742Z,21.60
2019-03-15T03:10:16.618Z,21.88
2019-03-15T03:12:49.065Z,21.78
2019-03-15T03:15:20.933Z,21.90
2019-03-15T03:17:52.676Z,21.90
2019-03-15T03:20:24.437Z,21.76
2019-03-15T03:22:55.940Z,21.66
2019-03-15T03:25:27.504Z,21.92
2019-03-15T03:27:59.540Z,21.93
2019-03-15T03:30:32.601Z,21.93
2019-03-15T03:33:04.293Z,21.98
2019-03-15T03:35:36.128Z,21.66
2019-03-15T03:38:07.912Z,22.19
2019-03-15T03:40:39.433Z,22.19
2019-03-15T03:43:11.380Z,22.14
2019-03-15T03:45:43.062Z,22.17
2019-03-15T03:48:15.818Z,22.17
2019-03-15T03:50:48.146Z,22.26
2019-03-15T03:53:19.783Z,22.27
2019-03-15T03:55:51.714Z,22.30
2019-03-15T03:58:23.916Z,22.16
2019-03-15T04:00:55.337Z,22.17
2019-03-15T04:03:27.400Z,22.17
2019-03-15T04:05:59.343Z,22.10
2019-03-15T04:08:30.755Z,22.10
2019-03-15T04:11:02.385Z,22.40
2019-03-15T04:13:34.307Z,22.39
2019-03-15T04:16:06.091Z,21.97
2019-03-15T04:18:37.909Z,22.06
2019-03-15T04:21:09.462Z,21.83
2019-03-15T04:23:41.371Z,22.08
2019-03-15T04:26:12.947Z,22.08
2019-03-15T04:28:44.690Z,22.40
2019-03-15T04:31:16.172Z,22.32
2019-03-15T04:33:47.806Z,22.32
2019-03-15T04:36:19.530Z,22.37
2019-03-15T04:38:51.529Z,22.55
2019-03-15T04:41:23.302Z,22.62
2019-03-15T04:43:55.114Z,22.69
2019-03-15T04:46:27.084Z,22.72
2019-03-15T04:48:58.397Z,22.72
2019-03-15T04:51:29.810Z,22.73
2019-03-15T04:54:01.675Z,22.83
2019-03-15T04:56:33.493Z,22.79
2019-03-15T04:59:05.358Z,22.79
2019-03-15T05:01:37.550Z,22.77
2019-03-15T05:04:09.274Z,22.92
2019-03-15T05:06:41.365Z,22.77
2019-03-15T05:09:13.204Z,22.78
2019-03-15T05:11:45.063Z,23.06
2019-03-15T05:14:17.032Z,22.94
2019-03-15T05:16:49.529Z,22.92
2019-03-15T05:19:22.168Z,23.02
2019-03-15T05:21:54.004Z,22.91
2019-03-15T05:24:25.654Z,22.91
2019-03-15T05:26:57.144Z,23.06
2019-03-15T05:29:28.993Z,23.16
2019-03-15T05:32:00.757Z,23.18
2019-03-15T05:34:33.381Z,23.26
2019-03-15T05:37:04.995Z,23.17
2019-03-15T05:39:37.088Z,23.41
2019-03-15T05:42:09.255Z,23.53
2019-03-15T05:44:41.591Z,23.53
2019-03-15T05:47:13.672Z,23.66
2019-03-15T05:49:45.197Z,23.60
2019-03-15T05:52:17.140Z,23.78
2019-03-15T05:54:48.878Z,23.61
2019-03-15T05:57:20.727Z,23.61
2019-03-15T05:59:53.020Z,23.92
2019-03-15T06:02:25.231Z,24.15
2019-03-15T06:04:57.926Z,24.19
2019-03-15T06:07:29.951Z,24.12
2019-03-15T06:10:01.859Z,24.45
2019-03-15T06:12:33.593Z,24.45
2019-03-15T06:15:05.920Z,24.35
2019-03-15T06:17:38.165Z,24.26
2019-03-15T06:20:10.700Z,23.91
2019-03-15T06:22:42.664Z,23.91
2019-03-15T06:25:15.232Z,24.34
2019-03-15T06:27:47.537Z,24.28
2019-03-15T06:30:19.821Z,24.50
2019-03-15T06:32:51.764Z,24.51
2019-03-15T06:35:24.031Z,24.78
2019-03-15T06:37:56.119Z,24.66
2019-03-15T06:40:28.130Z,24.62
2019-03-15T06:43:00.756Z,24.87
2019-03-15T06:45:32.582Z,24.86
2019-03-15T06:48:05.188Z,24.86
2019-03-15T06:50:39.882Z,24.46
2019-03-15T06:53:13.988Z,24.31
2019-03-15T06:55:47.358Z,24.31
2019-03-15T06:58:20.415Z,24.38
2019-03-15T07:00:54.914Z,24.42
2019-03-15T07:03:28.683Z,24.70
2019-03-15T07:06:03.135Z,24.70
2019-03-15T07:08:37.638Z,24.81
2019-03-15T07:11:12.773Z,24.71
2019-03-15T07:13:48.705Z,24.85
2019-03-15T07:16:23.986Z,24.76
2019-03-15T07:18:58.923Z,24.55
2019-03-15T07:21:36.803Z,25.16
2019-03-15T07:24:24.193Z,25.16
2019-03-15T07:26:51.610Z,24.77
2019-03-15T07:29:26.649Z,24.65
2019-03-15T07:32:02.336Z,24.41
2019-03-15T07:34:36.795Z,25.16
2019-03-15T07:37:11.541Z,25.16
2019-03-15T07:39:46.682Z,25.15
2019-03-15T07:42:18.946Z,25.07
2019-03-15T07:44:51.259Z,25.07
2019-03-15T07:47:23.302Z,25.43
2019-03-15T07:49:55.727Z,25.38
2019-03-15T07:52:28.555Z,25.35
2019-03-15T07:55:00.715Z,25.35
2019-03-15T07:57:32.713Z,25.42
2019-03-15T08:00:04.813Z,25.49
2019-03-15T08:02:36.428Z,25.52
2019-03-15T08:05:09.192Z,25.32
2019-03-15T08:07:45.153Z,25.41
2019-03-15T08:10:15.701Z,25.37
2019-03-15T08:12:49.725Z,25.37
2019-03-15T08:15:24.501Z,25.37
2019-03-15T08:17:59.375Z,25.31
2019-03-15T08:20:35.722Z,25.26
2019-03-15T08:23:11.356Z,25.49
2019-03-15T08:25:46.286Z,25.36
2019-03-15T08:28:22.138Z,25.32
2019-03-15T08:30:57.215Z,25.32
2019-03-15T08:33:32.245Z,25.42
2019-03-15T08:36:09.552Z,25.42
2019-03-15T08:38:47.893Z,25.29
2019-03-15T08:41:20.783Z,25.51
2019-03-15T08:43:55.393Z,25.48
2019-03-15T08:46:29.642Z,25.31
2019-03-15T08:49:06.249Z,25.43
2019-03-15T08:51:42.577Z,25.43
2019-03-15T08:54:17.328Z,25.54
2019-03-15T08:56:52.609Z,25.57
2019-03-15T08:59:28.730Z,25.52
2019-03-15T09:02:04.067Z,25.52
2019-03-15T09:04:38.836Z,25.55
2019-03-15T09:07:13.547Z,25.76
2019-03-15T09:09:50.559Z,25.52
2019-03-15T09:12:29.126Z,25.52
2019-03-15T09:15:04.510Z,25.49
2019-03-15T09:17:41.412Z,25.67
2019-03-15T09:20:16.822Z,25.67
2019-03-15T09:22:54.905Z,25.63
2019-03-15T09:25:29.527Z,25.63
2019-03-15T09:28:05.767Z,25.69
2019-03-15T09:30:40.289Z,25.59
2019-03-15T09:33:15.112Z,25.58
2019-03-15T09:35:50.981Z,25.66
2019-03-15T09:38:26.300Z,25.66
2019-03-15T09:41:03.415Z,25.64
2019-03-15T09:43:45.240Z,25.64
2019-03-15T09:46:21.004Z,25.72
2019-03-15T09:48:59.800Z,25.72
2019-03-15T09:51:39.266Z,25.65
2019-03-15T09:54:15.770Z,25.64
2019-03-15T09:56:57.800Z,25.64
2019-03-15T09:59:32.397Z,25.66
2019-03-15T10:02:08.435Z,25.81
2019-03-15T10:04:42.812Z,25.81
2019-03-15T10:07:19.081Z,25.69
2019-03-15T10:09:56.083Z,25.79
2019-03-15T10:12:31.192Z,25.82
2019-03-15T10:15:08.132Z,25.76
2019-03-15T10:17:47.145Z,25.71
2019-03-15T10:20:21.811Z,25.73
2019-03-15T10:23:06.126Z,25.73
2019-03-15T10:25:46.041Z,25.74
2019-03-15T10:28:11.854Z,25.48
2019-03-15T10:30:49.384Z,25.68
2019-03-15T10:33:30.491Z,25.68
2019-03-15T10:36:05.733Z,25.56
2019-03-15T10:38:43.966Z,25.49
2019-03-15T10:41:18.763Z,25.71
2019-03-15T10:43:55.176Z,25.67
2019-03-15T10:46:29.739Z,25.62
2019-03-15T10:49:04.571Z,25.62
2019-03-15T10:51:39.052Z,25.77
2019-03-15T10:54:16.320Z,25.75
2019-03-15T10:56:51.453Z,25.76
2019-03-15T10:59:26.350Z,25.78
2019-03-15T11:02:01.321Z,25.78
2019-03-15T11:04:35.630Z,25.66
2019-03-15T11:07:09.765Z,25.63
2019-03-15T11:09:42.953Z,25.63
2019-03-15T11:12:15.110Z,25.56
2019-03-15T11:14:47.060Z,25.53
2019-03-15T11:17:18.634Z,25.53
2019-03-15T11:19:50.624Z,25.56
2019-03-15T11:22:22.386Z,25.53
2019-03-15T11:24:54.332Z,25.50
2019-03-15T11:27:26.574Z,25.50
2019-03-15T11:29:58.685Z,25.56
2019-03-15T11:32:30.684Z,25.49
2019-03-15T11:35:02.705Z,25.53
2019-03-15T11:37:34.514Z,25.51
2019-03-15T11:40:07.198Z,25.51
2019-03-15T11:42:39.461Z,25.47
2019-03-15T11:45:13.649Z,25.47
2019-03-15T11:48:02.495Z,25.39
2019-03-15T11:50:24.705Z,25.41
2019-03-15T11:52:58.331Z,25.32
2019-03-15T11:55:32.200Z,25.32
2019-03-15T11:58:05.517Z,25.44
2019-03-15T12:00:38.818Z,25.37
2019-03-15T12:03:11.752Z,25.31
2019-03-15T12:05:43.742Z,25.32
2019-03-15T12:08:15.399Z,25.28
2019-03-15T12:10:47.078Z,25.25
2019-03-15T12:13:18.909Z,25.25
2019-03-15T12:15:50.596Z,25.19
2019-03-15T12:18:22.381Z,25.19
2019-03-15T12:20:54.176Z,25.16
2019-03-15T12:23:26.081Z,25.14
2019-03-15T12:25:57.725Z,25.10
2019-03-15T12:28:29.533Z,25.08
2019-03-15T12:31:01.289Z,25.09
2019-03-15T12:33:33.106Z,25.09
2019-03-15T12:36:05.071Z,25.09
2019-03-15T12:38:36.892Z,25.05
2019-03-15T12:41:08.639Z,25.06
2019-03-15T12:43:40.254Z,25.06
2019-03-15T12:46:12.012Z,25.05
2019-03-15T12:48:43.889Z,25.00
2019-03-15T12:51:15.835Z,24.96
2019-03-15T12:53:47.622Z,24.89
2019-03-15T12:56:19.230Z,24.95
2019-03-15T12:58:51.399Z,24.95
2019-03-15T13:01:22.978Z,24.93
2019-03-15T13:03:54.560Z,24.88
2019-03-15T13:06:26.234Z,24.88
2019-03-15T13:08:58.133Z,24.88
2019-03-15T13:11:30.138Z,24.84
2019-03-15T13:14:03.858Z,24.79
2019-03-15T13:16:35.531Z,24.79
2019-03-15T13:19:07.133Z,24.82
2019-03-15T13:21:38.854Z,24.78
2019-03-15T13:24:10.646Z,24.71
2019-03-15T13:26:42.229Z,24.76
2019-03-15T13:29:14.428Z,24.72
2019-03-15T13:31:45.936Z,24.64
2019-03-15T13:34:18.115Z,24.63
2019-03-15T13:36:50.243Z,24.63
2019-03-15T13:39:22.111Z,24.59
2019-03-15T13:41:54.436Z,24.57
2019-03-15T13:44:26.424Z,24.56
2019-03-15T13:46:58.131Z,24.56
2019-03-15T13:49:29.860Z,24.51
2019-03-15T13:52:01.610Z,24.48
2019-03-15T13:54:33.034Z,24.45
2019-03-15T13:57:04.729Z,24.42
2019-03-15T13:59:36.891Z,24.42
2019-03-15T14:02:11.704Z,24.42
2019-03-15T14:04:43.523Z,24.44
2019-03-15T14:07:15.270Z,24.44
2019-03-15T14:09:47.114Z,24.45
2019-03-15T14:12:19.130Z,24.33
2019-03-15T14:14:51.418Z,24.36
2019-03-15T14:17:23.127Z,24.36
2019-03-15T14:19:54.762Z,24.30
2019-03-15T14:22:26.172Z,24.30
2019-03-15T14:24:57.739Z,24.29
2019-03-15T14:27:37.502Z,24.29
2019-03-15T14:30:04.263Z,24.63
2019-03-15T14:32:35.717Z,24.15
2019-03-15T14:35:07.614Z,24.15
2019-03-15T14:37:39.218Z,24.09
2019-03-15T14:40:10.809Z,24.14
2019-03-15T14:42:42.547Z,24.07
2019-03-15T14:45:14.303Z,24.13
2019-03-15T14:47:46.124Z,24.13
2019-03-15T14:50:18.098Z,24.11
2019-03-15T14:52:49.697Z,24.07
2019-03-15T14:55:21.590Z,23.96
2019-03-15T14:57:53.730Z,24.09
2019-03-15T15:00:25.512Z,24.09
2019-03-15T15:02:57.406Z,24.04
2019-03-15T15:05:29.132Z,24.03
2019-03-15T15:08:00.935Z,24.06
2019-03-15T15:10:32.976Z,24.12
2019-03-15T15:13:04.687Z,24.12
2019-03-15T15:15:36.653Z,24.11
2019-03-15T15:18:08.063Z,23.93
2019-03-15T15:20:39.862Z,24.00
2019-03-15T15:23:11.455Z,24.02
2019-03-15T15:25:43.498Z,24.01
2019-03-15T15:28:14.977Z,24.01
2019-03-15T15:30:46.766Z,23.88
2019-03-15T15:33:19.155Z,23.93
2019-03-15T15:35:50.829Z,23.93
2019-03-15T15:38:22.436Z,23.93
2019-03-15T15:40:54.487Z,23.92
2019-03-15T15:43:27.145Z,23.83
2019-03-15T15:45:58.904Z,23.84
2019-03-15T15:48:30.350Z,23.88
2019-03-15T15:51:02.136Z,23.81
2019-03-15T15:53:33.583Z,23.83
2019-03-15T15:56:05.634Z,23.77
2019-03-15T15:58:37.038Z,23.84
2019-03-15T16:01:08.971Z,23.84
2019-03-15T16:03:41.142Z,23.67
2019-03-15T16:06:12.576Z,23.67
2019-03-15T16:08:43.747Z,23.79
2019-03-15T16:11:15.755Z,23.79
2019-03-15T16:13:47.388Z,23.81
2019-03-15T16:16:19.240Z,23.79
2019-03-15T16:18:50.888Z,23.79
2019-03-15T16:21:22.791Z,23.72
2019-03-15T16:23:55.024Z,23.68
2019-03-15T16:26:29.046Z,23.67
2019-03-15T16:29:00.514Z,23.69
2019-03-15T16:31:32.297Z,23.56
2019-03-15T16:34:04.610Z,23.59
2019-03-15T16:36:36.278Z,23.46
2019-03-15T16:39:09.740Z,23.46
2019-03-15T16:41:41.266Z,23.55
2019-03-15T16:44:13.012Z,23.28
2019-03-15T16:46:44.368Z,23.44
2019-03-15T16:49:16.225Z,23.16
2019-03-15T16:51:47.482Z,23.16
2019-03-15T16:54:20.121Z,23.21
2019-03-15T16:56:51.851Z,23.27
2019-03-15T16:59:24.679Z,23.29
2019-03-15T17:01:56.158Z,23.29
2019-03-15T17:04:30.532Z,23.18
2019-03-15T17:07:01.949Z,23.14
2019-03-15T17:09:33.546Z,23.14
2019-03-15T17:12:05.061Z,23.11
2019-03-15T17:14:36.828Z,23.18
2019-03-15T17:17:09.067Z,23.18
2019-03-15T17:19:41.026Z,23.10
2019-03-15T17:22:13.837Z,23.21
2019-03-15T17:24:45.365Z,23.21
2019-03-15T17:27:17.027Z,23.16
2019-03-15T17:29:49.540Z,23.09
2019-03-15T17:32:21.048Z,22.96
2019-03-15T17:34:52.866Z,22.91
2019-03-15T17:37:24.478Z,22.91
2019-03-15T17:39:56.043Z,22.94
2019-03-15T17:42:27.452Z,22.94
2019-03-15T17:44:58.753Z,22.89
2019-03-15T17:47:30.134Z,22.82
2019-03-15T17:50:01.788Z,22.89
2019-03-15T17:52:33.353Z,22.92
2019-03-15T17:55:04.859Z,22.92
2019-03-15T17:57:36.841Z,22.78
2019-03-15T18:00:19.614Z,22.78
2019-03-15T18:02:51.268Z,22.78
2019-03-15T18:05:22.972Z,22.84
2019-03-15T18:07:55.040Z,22.84
2019-03-15T18:10:27.017Z,22.71
2019-03-15T18:12:58.685Z,22.71
2019-03-15T18:15:30.702Z,22.71
2019-03-15T18:18:02.208Z,22.80
2019-03-15T18:20:33.711Z,22.72
2019-03-15T18:23:05.460Z,22.73
2019-03-15T18:25:37.072Z,22.73
2019-03-15T18:28:08.746Z,22.71
2019-03-15T18:30:40.243Z,22.55
2019-03-15T18:33:12.002Z,22.51
2019-03-15T18:35:43.546Z,22.51
2019-03-15T18:38:15.205Z,22.62
2019-03-15T18:40:46.983Z,22.62
2019-03-15T18:43:18.728Z,22.53
2019-03-15T18:45:50.240Z,22.49
2019-03-15T18:48:22.057Z,22.51
2019-03-15T18:50:53.917Z,22.24
2019-03-15T18:53:25.639Z,22.30
2019-03-15T18:55:57.143Z,22.28
2019-03-15T18:58:29.068Z,22.33
2019-03-15T19:01:00.472Z,22.33
2019-03-15T19:03:31.880Z,22.28
2019-03-15T19:06:03.273Z,22.17
2019-03-15T19:08:34.393Z,22.17
2019-03-15T19:11:06.466Z,22.04
2019-03-15T19:13:39.141Z,22.15
2019-03-15T19:16:20.004Z,22.17
2019-03-15T19:18:44.199Z,22.17
2019-03-15T19:21:15.799Z,22.07
2019-03-15T19:23:47.529Z,22.02
2019-03-15T19:26:19.363Z,22.02
2019-03-15T19:28:50.670Z,22.09
2019-03-15T19:31:22.041Z,22.05
2019-03-15T19:33:53.278Z,21.96
2019-03-15T19:36:24.707Z,22.01
2019-03-15T19:38:56.306Z,22.01
2019-03-15T19:41:28.126Z,21.86
2019-03-15T19:43:59.517Z,21.86
2019-03-15T19:46:31.265Z,21.89
2019-03-15T19:49:02.830Z,22.02
2019-03-15T19:51:34.583Z,22.00
2019-03-15T19:54:06.365Z,21.84
2019-03-15T19:56:38.130Z,21.93
2019-03-15T19:59:09.768Z,21.93
2019-03-15T20:01:41.388Z,21.68
2019-03-15T20:04:13.098Z,21.68
2019-03-15T20:06:44.568Z,21.68
2019-03-15T20:09:16.341Z,21.68
2019-03-15T20:11:48.345Z,21.68
2019-03-15T20:14:20.088Z,21.77
2019-03-15T20:16:51.669Z,21.63
2019-03-15T20:19:23.375Z,21.63
2019-03-15T20:21:55.018Z,21.71
2019-03-15T20:24:26.456Z,21.65
2019-03-15T20:26:57.851Z,21.63
2019-03-15T20:29:30.066Z,21.66
2019-03-15T20:32:01.267Z,21.66
2019-03-15T20:34:32.609Z,21.61
2019-03-15T20:37:04.140Z,21.50
2019-03-15T20:39:35.989Z,21.30
2019-03-15T20:42:07.433Z,21.41
2019-03-15T20:44:39.147Z,21.37
2019-03-15T20:47:11.981Z,21.37
2019-03-15T20:49:43.465Z,21.51
2019-03-15T20:52:14.725Z,21.46
2019-03-15T20:54:46.175Z,21.50
2019-03-15T20:57:17.550Z,21.49
2019-03-15T20:59:48.896Z,21.46
2019-03-15T21:02:20.320Z,21.57
2019-03-15T21:04:51.658Z,21.35
2019-03-15T21:07:22.933Z,21.32
2019-03-15T21:09:54.147Z,21.41
2019-03-15T21:12:25.463Z,21.23
2019-03-15T21:14:57.023Z,21.23
2019-03-15T21:17:28.533Z,21.21
2019-03-15T21:20:00.344Z,21.25
2019-03-15T21:22:31.698Z,21.28
2019-03-15T21:25:03.147Z,21.13
2019-03-15T21:27:34.419Z,21.21
2019-03-15T21:30:06.665Z,21.13
2019-03-15T21:32:38.400Z,21.17
2019-03-15T21:35:10.213Z,21.17
2019-03-15T21:37:41.633Z,21.17
2019-03-15T21:40:13.550Z,21.18
2019-03-15T21:42:44.914Z,21.17
2019-03-15T21:45:16.723Z,21.17
2019-03-15T21:47:48.005Z,21.09
2019-03-15T21:50:19.963Z,21.09
2019-03-15T21:52:51.434Z,21.11
2019-03-15T21:55:22.696Z,21.11
2019-03-15T21:57:54.293Z,21.08
2019-03-15T22:00:25.764Z,21.08
2019-03-15T22:02:57.218Z,20.89
2019-03-15T22:05:29.142Z,20.80
2019-03-15T22:08:00.452Z,20.99
2019-03-15T22:10:31.982Z,20.99
2019-03-15T22:13:03.336Z,20.97
2019-03-15T22:15:34.816Z,21.00
2019-03-15T22:18:06.303Z,20.94
2019-03-15T22:20:38.746Z,20.94
2019-03-15T22:23:09.900Z,20.84
2019-03-15T22:25:41.322Z,20.84
2019-03-15T22:28:12.941Z,20.94
2019-03-15T22:30:44.352Z,20.83
2019-03-15T22:33:15.901Z,20.81
2019-03-15T22:35:47.800Z,20.76
2019-03-15T22:38:26.239Z,20.76
2019-03-15T22:40:52.638Z,20.76
2019-03-15T22:43:24.600Z,20.76
2019-03-15T22:45:55.806Z,20.61
2019-03-15T22:48:27.479Z,20.71
2019-03-15T22:50:58.737Z,20.62
2019-03-15T22:53:30.445Z,20.62
2019-03-15T22:56:02.012Z,20.67
2019-03-15T22:58:34.389Z,20.67
2019-03-15T23:01:06.729Z,20.57
2019-03-15T23:03:40.334Z,20.61
2019-03-15T23:06:12.750Z,20.61
2019-03-15T23:08:44.059Z,20.58
2019-03-15T23:11:15.465Z,20.59
2019-03-15T23:13:46.711Z,20.59
2019-03-15T23:16:18.443Z,20.51
2019-03-15T23:18:49.803Z,20.51
2019-03-15T23:21:21.402Z,20.51
2019-03-15T23:23:52.726Z,20.52
2019-03-15T23:26:24.096Z,20.49
2019-03-15T23:28:55.540Z,20.44
2019-03-15T23:31:26.886Z,20.31
2019-03-15T23:33:58.395Z,20.32
2019-03-15T23:36:29.632Z,20.32
2019-03-15T23:39:01.380Z,20.17
2019-03-15T23:41:33.555Z,20.16
2019-03-15T23:44:05.071Z,20.16
2019-03-15T23:46:36.455Z,20.30
2019-03-15T23:49:09.088Z,20.07
2019-03-15T23:51:40.357Z,20.07
2019-03-15T23:54:11.733Z,20.05
2019-03-15T23:56:43.126Z,19.99
2019-03-15T23:59:14.780Z,20.04
